Time;durP1;ratioP1;P1;durP2;ratioP2;P2;SDS_P1;SDS_P2;PMS_P1;PMS_P2;Temp;Humidity;BMP_temperature;BMP_pressure;BME280_temperature;BME280_humidity;BME280_pressure;Samples;Min_cycle;Max_cycle;Signal;HPM_P1;HPM_P2
2022/09/12 00:01:12;;;;;;;;;;;16.20;99.90;;;;;;5060556;28;19965;-66
2022/09/12 00:03:38;;;;;;;;;;;16.10;99.90;;;;;;5070752;28;19913;-66
2022/09/12 00:06:08;;;;;;;;;;;16.20;99.90;;;;;;5068248;28;20382;-65
2022/09/12 00:08:34;;;;;;;;;;;16.20;99.90;;;;;;5075966;28;20318;-66
2022/09/12 00:11:03;;;;;;;;;;;16.10;99.90;;;;;;5070824;28;19909;-65
2022/09/12 00:13:28;;;;;;;;;;;16.20;99.90;;;;;;5072893;28;19912;-67
2022/09/12 00:15:54;;;;;;;;;;;16.20;99.90;;;;;;5064994;28;19908;-66
2022/09/12 00:18:19;;;;;;;;;;;16.20;99.90;;;;;;5069412;28;19928;-66
2022/09/12 00:20:46;;;;;;;;;;;16.30;99.90;;;;;;5067752;28;19962;-66
2022/09/12 00:23:12;;;;;;;;;;;16.30;99.90;;;;;;5059510;28;22303;-66
2022/09/12 00:25:41;;;;;;;;;;;16.20;99.90;;;;;;5065910;28;20031;-65
2022/09/12 00:28:06;;;;;;;;;;;16.20;99.90;;;;;;5064001;28;20473;-65
2022/09/12 00:30:32;;;;;;;;;;;16.20;99.90;;;;;;5071228;28;19947;-66
2022/09/12 00:32:58;;;;;;;;;;;16.20;99.90;;;;;;5070369;28;19963;-65
2022/09/12 00:35:24;;;;;;;;;;;16.20;99.90;;;;;;5068938;28;19920;-65
2022/09/12 00:37:49;;;;;;;;;;;16.20;99.90;;;;;;5063791;28;20403;-66
2022/09/12 00:40:15;;;;;;;;;;;16.20;99.90;;;;;;5069001;28;19912;-65
2022/09/12 00:42:40;;;;;;;;;;;16.30;99.90;;;;;;5069283;28;20292;-65
2022/09/12 00:45:17;;;;;;;;;;;16.30;99.90;;;;;;5062512;28;19943;-65
2022/09/12 00:47:43;;;;;;;;;;;16.30;99.90;;;;;;5053279;28;19993;-67
2022/09/12 00:50:11;;;;;;;;;;;16.30;99.90;;;;;;5070182;28;19917;-66
2022/09/12 00:52:45;;;;;;;;;;;16.30;99.90;;;;;;5055042;28;19995;-66
2022/09/12 00:55:15;;;;;;;;;;;16.30;99.90;;;;;;5072224;28;20011;-65
2022/09/12 00:57:48;;;;;;;;;;;16.30;99.90;;;;;;5073613;28;20394;-66
2022/09/12 01:00:15;;;;;;;;;;;16.30;99.90;;;;;;5072822;28;20327;-65
2022/09/12 01:02:45;;;;;;;;;;;16.30;99.90;;;;;;5074318;28;20015;-66
2022/09/12 01:05:12;;;;;;;;;;;16.20;99.90;;;;;;5070430;28;20833;-65
2022/09/12 01:07:37;;;;;;;;;;;16.20;99.90;;;;;;5063939;28;20302;-66
2022/09/12 01:10:04;;;;;;;;;;;16.10;99.90;;;;;;5065868;28;19920;-66
2022/09/12 01:12:30;;;;;;;;;;;16.10;99.90;;;;;;5067386;28;19921;-65
2022/09/12 01:14:55;;;;;;;;;;;16.10;99.90;;;;;;5066919;28;19969;-66
2022/09/12 01:17:23;;;;;;;;;;;16.10;99.90;;;;;;5061395;28;19996;-66
2022/09/12 01:19:52;;;;;;;;;;;16.10;99.90;;;;;;5064469;28;19965;-66
2022/09/12 01:22:29;;;;;;;;;;;16.10;99.90;;;;;;5071502;28;19914;-66
2022/09/12 01:25:13;;;;;;;;;;;16.10;99.90;;;;;;5070236;28;19912;-65
2022/09/12 01:27:42;;;;;;;;;;;16.10;99.90;;;;;;5071123;28;20275;-65
2022/09/12 01:30:26;;;;;;;;;;;16.10;99.90;;;;;;5070483;28;19966;-65
2022/09/12 01:33:04;;;;;;;;;;;16.10;99.90;;;;;;5071771;28;19913;-65
2022/09/12 01:35:52;;;;;;;;;;;16.10;99.90;;;;;;5057617;28;19912;-65
2022/09/12 01:38:20;;;;;;;;;;;16.10;99.90;;;;;;5064090;28;19912;-66
2022/09/12 01:41:06;;;;;;;;;;;16.10;99.90;;;;;;5063549;28;20423;-66
2022/09/12 01:43:35;;;;;;;;;;;16.00;99.90;;;;;;5051104;28;21214;-65
2022/09/12 01:46:04;;;;;;;;;;;15.90;99.90;;;;;;5071131;28;19912;-65
2022/09/12 01:48:34;;;;;;;;;;;16.00;99.90;;;;;;5072845;28;19912;-66
2022/09/12 01:51:06;;;;;;;;;;;16.00;99.90;;;;;;5054270;28;20011;-66
2022/09/12 01:53:41;;;;;;;;;;;16.00;99.90;;;;;;5051236;28;20362;-66
2022/09/12 01:56:21;;;;;;;;;;;16.10;99.90;;;;;;5072376;28;19955;-66
2022/09/12 01:58:50;;;;;;;;;;;16.20;99.90;;;;;;5066453;28;19913;-66
2022/09/12 02:01:20;;;;;;;;;;;16.20;99.90;;;;;;5065973;28;20283;-65
2022/09/12 02:03:53;;;;;;;;;;;16.20;99.90;;;;;;5072553;28;19961;-66
2022/09/12 02:06:41;;;;;;;;;;;16.20;99.90;;;;;;5069446;28;19920;-67
2022/09/12 02:09:09;;;;;;;;;;;16.40;99.90;;;;;;5065195;28;19912;-66
2022/09/12 02:11:36;;;;;;;;;;;16.30;99.90;;;;;;5055097;28;19913;-66
2022/09/12 02:14:14;;;;;;;;;;;16.40;99.90;;;;;;5073938;28;19912;-66
2022/09/12 02:16:43;;;;;;;;;;;16.40;99.90;;;;;;5049179;28;20011;-65
2022/09/12 02:19:14;;;;;;;;;;;16.40;99.90;;;;;;5066411;28;20360;-66
2022/09/12 02:21:43;;;;;;;;;;;16.50;99.90;;;;;;5048656;28;19969;-65
2022/09/12 02:24:11;;;;;;;;;;;16.50;99.90;;;;;;5062135;28;20359;-66
2022/09/12 02:26:40;;;;;;;;;;;16.40;99.90;;;;;;5070292;28;19921;-66
2022/09/12 02:29:06;;;;;;;;;;;16.40;99.90;;;;;;5061269;28;19916;-67
2022/09/12 02:31:31;;;;;;;;;;;16.30;99.90;;;;;;5053050;28;20404;-66
2022/09/12 02:34:09;;;;;;;;;;;16.30;99.90;;;;;;5062109;28;19946;-66
2022/09/12 02:36:43;;;;;;;;;;;16.30;99.90;;;;;;5071788;28;19918;-66
2022/09/12 02:39:09;;;;;;;;;;;16.20;99.90;;;;;;5069972;28;20015;-66
2022/09/12 02:41:34;;;;;;;;;;;16.30;99.90;;;;;;5066273;28;20363;-66
2022/09/12 02:44:00;;;;;;;;;;;16.30;99.90;;;;;;5049479;28;19934;-66
2022/09/12 02:46:34;;;;;;;;;;;16.30;99.90;;;;;;5070583;28;20097;-66
2022/09/12 02:49:00;;;;;;;;;;;16.20;99.90;;;;;;5071701;28;19924;-66
2022/09/12 02:51:26;;;;;;;;;;;16.20;99.90;;;;;;5059157;28;19913;-65
2022/09/12 02:53:52;;;;;;;;;;;16.10;99.90;;;;;;5064091;28;20385;-65
2022/09/12 02:56:20;;;;;;;;;;;16.10;99.90;;;;;;5066738;28;19916;-67
2022/09/12 02:58:46;;;;;;;;;;;16.10;99.90;;;;;;5071055;28;20319;-65
2022/09/12 03:01:11;;;;;;;;;;;16.10;99.90;;;;;;5069025;28;19921;-65
2022/09/12 03:03:52;;;;;;;;;;;16.20;99.90;;;;;;5062156;28;19986;-66
2022/09/12 03:06:24;;;;;;;;;;;16.10;99.90;;;;;;5050041;28;20429;-66
2022/09/12 03:09:10;;;;;;;;;;;15.90;99.90;;;;;;5070961;28;20454;-66
2022/09/12 03:11:41;;;;;;;;;;;15.80;99.90;;;;;;5067773;28;19912;-67
2022/09/12 03:14:28;;;;;;;;;;;15.80;99.90;;;;;;5065740;28;20397;-66
2022/09/12 03:17:00;;;;;;;;;;;15.90;99.90;;;;;;5062708;28;20388;-66
2022/09/12 03:19:44;;;;;;;;;;;15.90;99.90;;;;;;5070214;28;19916;-66
2022/09/12 03:22:17;;;;;;;;;;;15.90;99.90;;;;;;5071749;28;20317;-66
2022/09/12 03:24:50;;;;;;;;;;;16.00;99.90;;;;;;5070422;28;19962;-66
2022/09/12 03:27:19;;;;;;;;;;;16.00;99.90;;;;;;5069506;28;20064;-65
2022/09/12 03:29:46;;;;;;;;;;;16.10;99.90;;;;;;5048802;28;19916;-65
2022/09/12 03:32:12;;;;;;;;;;;16.20;99.90;;;;;;5062667;28;19912;-66
2022/09/12 03:34:38;;;;;;;;;;;16.10;99.90;;;;;;5067395;28;19969;-67
2022/09/12 03:37:03;;;;;;;;;;;16.20;99.90;;;;;;5070980;28;19919;-66
2022/09/12 03:39:29;;;;;;;;;;;16.20;99.90;;;;;;5069631;28;19913;-67
2022/09/12 03:41:54;;;;;;;;;;;16.30;99.90;;;;;;5069794;28;20326;-66
2022/09/12 03:44:20;;;;;;;;;;;16.30;99.90;;;;;;5071473;28;19955;-66
2022/09/12 03:46:46;;;;;;;;;;;16.30;99.90;;;;;;5068064;28;20347;-66
2022/09/12 03:49:11;;;;;;;;;;;16.20;99.90;;;;;;5067005;28;19913;-66
2022/09/12 03:51:37;;;;;;;;;;;16.20;99.90;;;;;;5040615;28;20275;-66
2022/09/12 03:54:03;;;;;;;;;;;16.20;99.90;;;;;;5045133;28;19962;-65
2022/09/12 03:56:29;;;;;;;;;;;16.30;99.90;;;;;;5059518;28;20274;-65
2022/09/12 03:58:54;;;;;;;;;;;16.20;99.90;;;;;;5066199;28;20263;-66
2022/09/12 04:01:20;;;;;;;;;;;16.30;99.90;;;;;;5063220;28;19917;-66
2022/09/12 04:03:50;;;;;;;;;;;16.30;99.90;;;;;;5070480;28;19967;-65
2022/09/12 04:06:16;;;;;;;;;;;16.30;99.90;;;;;;5056118;28;20019;-66
2022/09/12 04:08:42;;;;;;;;;;;16.20;99.90;;;;;;5064546;28;19919;-65
2022/09/12 04:11:12;;;;;;;;;;;16.20;99.90;;;;;;5064930;28;20019;-65
2022/09/12 04:13:38;;;;;;;;;;;16.10;99.90;;;;;;5069314;28;20378;-65
2022/09/12 04:16:04;;;;;;;;;;;16.00;99.90;;;;;;5070852;28;19979;-67
2022/09/12 04:18:30;;;;;;;;;;;16.00;99.90;;;;;;5071536;28;20256;-66
2022/09/12 04:20:56;;;;;;;;;;;16.10;99.90;;;;;;5068413;28;19918;-66
2022/09/12 04:23:22;;;;;;;;;;;16.00;99.90;;;;;;5068335;28;19920;-66
2022/09/12 04:25:54;;;;;;;;;;;16.00;99.90;;;;;;5073764;28;19917;-66
2022/09/12 04:28:20;;;;;;;;;;;16.00;99.90;;;;;;5068263;28;20020;-66
2022/09/12 04:30:45;;;;;;;;;;;16.00;99.90;;;;;;5063171;28;20348;-65
2022/09/12 04:33:11;;;;;;;;;;;16.10;99.90;;;;;;5071088;28;19927;-65
2022/09/12 04:35:36;;;;;;;;;;;16.10;99.90;;;;;;5072989;28;19912;-66
2022/09/12 04:38:02;;;;;;;;;;;16.10;99.90;;;;;;5054325;28;19943;-66
2022/09/12 04:40:30;;;;;;;;;;;16.10;99.90;;;;;;5072298;28;19913;-66
2022/09/12 04:42:56;;;;;;;;;;;16.10;99.90;;;;;;5072400;28;19912;-66
2022/09/12 04:45:21;;;;;;;;;;;16.10;99.90;;;;;;5070813;28;19946;-66
2022/09/12 04:47:47;;;;;;;;;;;16.00;99.90;;;;;;5074163;28;20294;-66
2022/09/12 04:50:13;;;;;;;;;;;16.00;99.90;;;;;;5073498;28;19913;-65
2022/09/12 04:52:39;;;;;;;;;;;15.90;99.90;;;;;;5069946;28;20042;-66
2022/09/12 04:55:05;;;;;;;;;;;15.90;99.90;;;;;;5066547;28;19920;-66
2022/09/12 04:57:31;;;;;;;;;;;15.90;99.90;;;;;;5064545;28;20208;-65
2022/09/12 04:59:57;;;;;;;;;;;15.90;99.90;;;;;;5065211;28;19986;-66
2022/09/12 05:02:23;;;;;;;;;;;15.90;99.90;;;;;;5069668;28;19912;-66
2022/09/12 05:04:48;;;;;;;;;;;15.90;99.90;;;;;;5065470;28;19927;-65
2022/09/12 05:07:14;;;;;;;;;;;16.10;99.90;;;;;;5060545;28;20398;-66
2022/09/12 05:09:40;;;;;;;;;;;16.10;99.90;;;;;;5067516;28;20355;-66
2022/09/12 05:12:06;;;;;;;;;;;16.00;99.90;;;;;;5068115;28;19921;-66
2022/09/12 05:14:32;;;;;;;;;;;16.10;99.90;;;;;;5047523;28;20324;-66
2022/09/12 05:17:00;;;;;;;;;;;16.10;99.90;;;;;;5067020;28;19940;-65
2022/09/12 05:19:26;;;;;;;;;;;16.10;99.90;;;;;;5067443;28;21576;-65
2022/09/12 05:21:51;;;;;;;;;;;16.10;99.90;;;;;;5053794;28;19999;-67
2022/09/12 05:24:17;;;;;;;;;;;16.10;99.90;;;;;;5073663;28;19999;-67
2022/09/12 05:26:42;;;;;;;;;;;16.00;99.90;;;;;;5072046;28;19920;-65
2022/09/12 05:29:08;;;;;;;;;;;15.90;99.90;;;;;;5074110;28;20015;-66
2022/09/12 05:31:34;;;;;;;;;;;15.90;99.90;;;;;;5054965;28;19920;-66
2022/09/12 05:33:59;;;;;;;;;;;15.90;99.90;;;;;;5053775;28;19920;-66
2022/09/12 05:36:26;;;;;;;;;;;15.90;99.90;;;;;;5069085;28;19943;-67
2022/09/12 05:38:52;;;;;;;;;;;15.80;99.90;;;;;;5066708;28;19916;-66
2022/09/12 05:41:19;;;;;;;;;;;15.90;99.90;;;;;;5056830;28;19920;-66
2022/09/12 05:43:45;;;;;;;;;;;15.90;99.90;;;;;;5054696;28;19999;-66
2022/09/12 05:46:12;;;;;;;;;;;15.90;99.90;;;;;;5071929;28;19948;-65
2022/09/12 05:48:38;;;;;;;;;;;15.90;99.90;;;;;;5066384;28;20495;-66
2022/09/12 05:51:06;;;;;;;;;;;15.90;99.90;;;;;;5026896;28;19956;-66
2022/09/12 05:53:31;;;;;;;;;;;15.90;99.90;;;;;;5070582;28;19916;-67
2022/09/12 05:56:16;;;;;;;;;;;15.90;99.90;;;;;;5073457;28;20163;-66
2022/09/12 05:58:43;;;;;;;;;;;15.90;99.90;;;;;;5062979;28;19950;-67
2022/09/12 06:01:11;;;;;;;;;;;15.90;99.90;;;;;;5062090;28;20023;-66
2022/09/12 06:03:41;;;;;;;;;;;15.90;99.90;;;;;;5066353;28;19913;-66
2022/09/12 06:06:08;;;;;;;;;;;15.80;99.90;;;;;;5071107;28;20003;-66
2022/09/12 06:08:35;;;;;;;;;;;15.80;99.90;;;;;;5049173;28;20375;-66
2022/09/12 06:11:01;;;;;;;;;;;15.80;99.90;;;;;;5072277;28;19916;-67
2022/09/12 06:13:27;;;;;;;;;;;15.80;99.90;;;;;;5070506;28;19920;-66
2022/09/12 06:15:53;;;;;;;;;;;15.90;99.90;;;;;;5052045;28;20397;-66
2022/09/12 06:18:19;;;;;;;;;;;15.90;99.90;;;;;;5068973;28;20028;-66
2022/09/12 06:20:45;;;;;;;;;;;15.90;99.90;;;;;;5051446;28;19963;-66
2022/09/12 06:23:11;;;;;;;;;;;16.00;99.90;;;;;;5051284;28;19956;-66
2022/09/12 06:25:37;;;;;;;;;;;16.00;99.90;;;;;;5070638;28;19969;-67
2022/09/12 06:28:03;;;;;;;;;;;16.10;99.90;;;;;;5070497;28;20355;-65
2022/09/12 06:30:28;;;;;;;;;;;16.10;99.90;;;;;;5068635;28;19924;-66
2022/09/12 06:32:55;;;;;;;;;;;16.10;99.90;;;;;;5065809;28;19916;-66
2022/09/12 06:35:22;;;;;;;;;;;16.30;99.90;;;;;;5055829;28;19924;-66
2022/09/12 06:37:48;;;;;;;;;;;16.40;99.90;;;;;;5070490;28;20355;-66
2022/09/12 06:40:13;;;;;;;;;;;16.50;99.90;;;;;;5065068;28;19919;-67
2022/09/12 06:42:39;;;;;;;;;;;16.50;99.90;;;;;;5067000;28;19991;-67
2022/09/12 06:45:05;;;;;;;;;;;16.40;99.90;;;;;;5061500;28;19934;-67
2022/09/12 06:47:30;;;;;;;;;;;16.40;99.90;;;;;;5063033;28;19923;-67
2022/09/12 06:49:56;;;;;;;;;;;16.40;99.90;;;;;;5071901;28;19939;-66
2022/09/12 06:52:21;;;;;;;;;;;16.50;99.90;;;;;;5068578;28;20265;-67
2022/09/12 06:54:47;;;;;;;;;;;16.50;99.90;;;;;;5068452;28;20386;-66
2022/09/12 06:57:13;;;;;;;;;;;16.50;99.90;;;;;;5061730;28;19920;-66
2022/09/12 06:59:39;;;;;;;;;;;16.70;99.90;;;;;;5068266;28;19921;-67
2022/09/12 07:02:05;;;;;;;;;;;16.80;99.90;;;;;;5062702;28;20095;-66
2022/09/12 07:04:32;;;;;;;;;;;16.90;99.90;;;;;;5071046;28;19935;-66
2022/09/12 07:06:57;;;;;;;;;;;17.00;99.90;;;;;;5070152;28;19928;-67
2022/09/12 07:09:23;;;;;;;;;;;17.10;99.90;;;;;;5070900;28;19916;-66
2022/09/12 07:11:49;;;;;;;;;;;17.20;99.90;;;;;;5052149;28;20261;-68
2022/09/12 07:14:14;;;;;;;;;;;17.20;99.90;;;;;;5070984;28;19932;-67
2022/09/12 07:16:40;;;;;;;;;;;17.30;99.90;;;;;;5070502;28;19999;-67
2022/09/12 07:19:07;;;;;;;;;;;17.30;99.90;;;;;;5065098;28;19950;-68
2022/09/12 07:21:35;;;;;;;;;;;17.30;99.90;;;;;;5048860;28;20044;-67
2022/09/12 07:24:00;;;;;;;;;;;17.30;99.90;;;;;;5068134;28;19913;-66
2022/09/12 07:26:27;;;;;;;;;;;17.30;99.90;;;;;;5067500;28;19924;-67
2022/09/12 07:28:54;;;;;;;;;;;17.40;99.90;;;;;;5069851;28;19916;-67
2022/09/12 07:31:21;;;;;;;;;;;17.30;99.90;;;;;;5069576;28;19912;-68
2022/09/12 07:33:49;;;;;;;;;;;17.30;99.90;;;;;;5067847;28;19913;-66
2022/09/12 07:36:16;;;;;;;;;;;17.30;99.90;;;;;;5067241;28;20421;-66
2022/09/12 07:38:42;;;;;;;;;;;17.40;99.90;;;;;;5065057;28;19970;-67
2022/09/12 07:41:17;;;;;;;;;;;17.40;99.90;;;;;;5050254;28;19966;-66
2022/09/12 07:43:43;;;;;;;;;;;17.40;99.90;;;;;;5067883;28;20207;-66
2022/09/12 07:46:09;;;;;;;;;;;17.40;99.90;;;;;;5067431;28;19920;-67
2022/09/12 07:48:34;;;;;;;;;;;17.40;99.90;;;;;;5070135;28;19912;-67
2022/09/12 07:51:01;;;;;;;;;;;17.40;99.90;;;;;;5069591;28;19958;-67
2022/09/12 07:53:32;;;;;;;;;;;17.50;99.90;;;;;;5053541;28;19959;-68
2022/09/12 07:55:57;;;;;;;;;;;17.60;99.90;;;;;;5066288;28;19924;-68
2022/09/12 07:58:23;;;;;;;;;;;17.70;99.90;;;;;;5070129;28;19942;-66
2022/09/12 08:00:49;;;;;;;;;;;17.90;99.90;;;;;;5063506;28;20008;-66
2022/09/12 08:03:15;;;;;;;;;;;17.90;99.90;;;;;;5067931;28;20302;-67
2022/09/12 08:05:41;;;;;;;;;;;18.00;99.90;;;;;;5066923;28;19921;-66
2022/09/12 08:08:06;;;;;;;;;;;18.10;99.90;;;;;;5068083;28;19943;-66
2022/09/12 08:10:32;;;;;;;;;;;18.30;99.90;;;;;;5066910;28;20027;-65
2022/09/12 08:12:57;;;;;;;;;;;18.30;99.90;;;;;;5065724;28;20343;-68
2022/09/12 08:15:23;;;;;;;;;;;18.50;99.90;;;;;;5064872;28;19952;-67
2022/09/12 08:17:52;;;;;;;;;;;18.60;99.90;;;;;;5063316;28;19975;-67
2022/09/12 08:20:17;;;;;;;;;;;18.60;99.90;;;;;;5051250;28;19913;-67
2022/09/12 08:22:43;;;;;;;;;;;18.70;99.90;;;;;;5069539;28;19912;-69
2022/09/12 08:25:09;;;;;;;;;;;18.70;99.90;;;;;;5070250;28;19928;-67
2022/09/12 08:27:35;;;;;;;;;;;18.60;99.90;;;;;;5067695;28;19944;-67
2022/09/12 08:30:00;;;;;;;;;;;18.70;99.90;;;;;;5067285;28;20244;-67
2022/09/12 08:32:26;;;;;;;;;;;18.60;99.90;;;;;;5053270;28;19920;-67
2022/09/12 08:34:51;;;;;;;;;;;18.70;99.90;;;;;;5056967;28;19920;-67
2022/09/12 08:37:18;;;;;;;;;;;18.80;99.90;;;;;;5059967;28;19912;-66
2022/09/12 08:39:43;;;;;;;;;;;18.80;99.90;;;;;;5048902;28;20061;-67
2022/09/12 08:42:09;;;;;;;;;;;18.80;99.90;;;;;;5067830;28;20006;-67
2022/09/12 08:44:38;;;;;;;;;;;19.00;99.90;;;;;;5050984;28;19934;-66
2022/09/12 08:47:04;;;;;;;;;;;19.00;99.90;;;;;;5069495;28;20325;-66
2022/09/12 08:49:32;;;;;;;;;;;19.00;99.90;;;;;;5059096;28;19920;-67
2022/09/12 08:51:59;;;;;;;;;;;19.00;99.90;;;;;;5066873;28;20004;-66
2022/09/12 08:54:27;;;;;;;;;;;19.00;99.90;;;;;;5068427;28;19912;-66
2022/09/12 08:56:59;;;;;;;;;;;19.10;99.90;;;;;;5071381;28;19916;-66
2022/09/12 08:59:24;;;;;;;;;;;19.00;99.90;;;;;;5069883;28;20311;-67
2022/09/12 09:01:54;;;;;;;;;;;19.10;99.90;;;;;;5071041;28;19912;-66
2022/09/12 09:04:22;;;;;;;;;;;19.20;99.90;;;;;;5071175;28;19994;-66
2022/09/12 09:06:57;;;;;;;;;;;19.30;99.90;;;;;;5068135;28;20299;-66
2022/09/12 09:09:35;;;;;;;;;;;19.40;99.90;;;;;;5052732;28;19913;-65
2022/09/12 09:12:16;;;;;;;;;;;19.40;99.90;;;;;;5063490;28;20432;-66
2022/09/12 09:14:47;;;;;;;;;;;19.50;99.90;;;;;;5080359;28;20007;-66
2022/09/12 09:17:31;;;;;;;;;;;19.70;99.90;;;;;;5056893;28;19928;-66
2022/09/12 09:20:15;;;;;;;;;;;19.80;99.90;;;;;;5070567;28;19919;-67
2022/09/12 09:22:41;;;;;;;;;;;19.80;99.90;;;;;;5069259;28;19934;-66
2022/09/12 09:25:16;;;;;;;;;;;19.90;99.90;;;;;;5065187;28;19921;-67
2022/09/12 09:27:45;;;;;;;;;;;20.00;99.90;;;;;;5061595;28;19925;-67
2022/09/12 09:30:15;;;;;;;;;;;20.10;99.90;;;;;;5069554;28;19959;-66
2022/09/12 09:32:43;;;;;;;;;;;20.20;99.90;;;;;;5049782;28;20341;-66
2022/09/12 09:35:22;;;;;;;;;;;20.30;99.90;;;;;;5072872;28;19913;-66
2022/09/12 09:37:59;;;;;;;;;;;20.40;99.90;;;;;;5069291;28;20294;-66
2022/09/12 09:40:45;;;;;;;;;;;20.50;99.90;;;;;;5066593;28;19919;-66
2022/09/12 09:43:21;;;;;;;;;;;20.60;99.90;;;;;;5066830;28;19921;-66
2022/09/12 09:45:47;;;;;;;;;;;20.70;99.90;;;;;;5058726;28;19912;-66
2022/09/12 09:48:18;;;;;;;;;;;20.80;99.90;;;;;;5051140;28;20017;-66
2022/09/12 09:50:44;;;;;;;;;;;21.00;99.90;;;;;;5067872;28;19924;-67
2022/09/12 09:53:30;;;;;;;;;;;21.00;99.90;;;;;;5066139;28;20262;-66
2022/09/12 09:55:59;;;;;;;;;;;20.90;99.90;;;;;;5065619;28;19928;-65
2022/09/12 09:58:28;;;;;;;;;;;20.80;99.90;;;;;;5071259;28;19920;-67
2022/09/12 10:00:57;;;;;;;;;;;20.90;99.90;;;;;;5070391;28;19919;-66
2022/09/12 10:03:36;;;;;;;;;;;21.10;99.90;;;;;;5073576;28;19932;-66
2022/09/12 10:06:21;;;;;;;;;;;21.30;99.90;;;;;;5068984;28;19924;-66
2022/09/12 10:08:48;;;;;;;;;;;21.30;99.90;;;;;;5069749;28;19927;-67
2022/09/12 10:11:13;;;;;;;;;;;21.30;99.90;;;;;;5072523;28;19947;-67
2022/09/12 10:13:55;;;;;;;;;;;21.30;99.90;;;;;;5071664;28;19960;-66
2022/09/12 10:16:31;;;;;;;;;;;21.40;99.90;;;;;;5041720;28;20078;-67
2022/09/12 10:18:58;;;;;;;;;;;21.60;99.90;;;;;;5072121;28;19913;-66
2022/09/12 10:21:29;;;;;;;;;;;21.70;99.90;;;;;;5070058;28;19939;-67
2022/09/12 10:24:09;;;;;;;;;;;22.00;99.90;;;;;;5061489;28;19920;-66
2022/09/12 10:26:37;;;;;;;;;;;22.10;99.90;;;;;;5069241;28;19936;-67
2022/09/12 10:29:05;;;;;;;;;;;22.20;99.90;;;;;;5055971;28;19951;-66
2022/09/12 10:31:42;;;;;;;;;;;22.40;99.90;;;;;;5071795;28;19928;-66
2022/09/12 10:34:22;;;;;;;;;;;22.60;99.90;;;;;;5072022;28;19916;-66
2022/09/12 10:36:51;;;;;;;;;;;22.70;99.90;;;;;;5068692;28;20375;-67
2022/09/12 10:39:18;;;;;;;;;;;22.80;99.90;;;;;;5067739;28;20078;-66
2022/09/12 10:41:43;;;;;;;;;;;23.00;99.90;;;;;;5066355;28;19995;-66
2022/09/12 10:44:17;;;;;;;;;;;23.10;99.90;;;;;;5072466;28;19913;-67
2022/09/12 10:46:43;;;;;;;;;;;23.10;99.90;;;;;;5042991;28;19921;-66
2022/09/12 10:49:12;;;;;;;;;;;23.30;99.90;;;;;;5067642;28;19923;-67
2022/09/12 10:51:37;;;;;;;;;;;23.40;99.90;;;;;;5067638;28;19952;-67
2022/09/12 10:54:04;;;;;;;;;;;23.50;99.90;;;;;;5065451;28;20032;-67
2022/09/12 10:56:31;;;;;;;;;;;23.60;99.90;;;;;;5064734;28;19924;-67
2022/09/12 10:59:12;;;;;;;;;;;23.60;99.90;;;;;;5072548;28;19919;-66
2022/09/12 11:01:40;;;;;;;;;;;23.70;99.90;;;;;;5047232;28;19916;-66
2022/09/12 11:04:24;;;;;;;;;;;23.90;99.90;;;;;;5073177;28;19915;-67
2022/09/12 11:07:04;;;;;;;;;;;24.00;99.90;;;;;;5065539;28;19924;-66
2022/09/12 11:09:38;;;;;;;;;;;24.10;99.90;;;;;;5067284;28;19913;-67
2022/09/12 11:12:12;;;;;;;;;;;24.10;99.90;;;;;;5072314;28;20042;-67
2022/09/12 11:14:44;;;;;;;;;;;24.20;99.90;;;;;;5071585;28;19917;-67
2022/09/12 11:17:13;;;;;;;;;;;24.30;99.90;;;;;;5071671;28;20430;-67
2022/09/12 11:19:58;;;;;;;;;;;24.40;99.90;;;;;;5065528;28;20389;-67
2022/09/12 11:22:38;;;;;;;;;;;24.50;99.90;;;;;;5059717;28;19928;-67
2022/09/12 11:25:07;;;;;;;;;;;24.30;99.90;;;;;;5069379;28;20046;-68
2022/09/12 11:27:38;;;;;;;;;;;24.40;99.90;;;;;;5064099;28;19920;-67
2022/09/12 11:30:08;;;;;;;;;;;24.50;99.90;;;;;;5063314;28;19919;-67
2022/09/12 11:32:36;;;;;;;;;;;24.60;97.30;;;;;;5069143;28;20270;-67
2022/09/12 11:35:14;;;;;;;;;;;24.60;96.40;;;;;;5065907;28;19924;-66
2022/09/12 11:37:59;;;;;;;;;;;24.40;96.90;;;;;;5062704;28;20020;-67
2022/09/12 11:40:28;;;;;;;;;;;24.60;93.40;;;;;;5070489;28;20388;-67
2022/09/12 11:43:05;;;;;;;;;;;24.90;91.70;;;;;;5070956;28;19924;-66
2022/09/12 11:45:43;;;;;;;;;;;25.10;91.80;;;;;;5071940;28;19920;-66
2022/09/12 11:48:16;;;;;;;;;;;25.10;85.10;;;;;;5043649;28;19931;-65
2022/09/12 11:50:41;;;;;;;;;;;25.20;87.90;;;;;;5063328;28;19920;-66
2022/09/12 11:53:12;;;;;;;;;;;25.50;86.80;;;;;;5066967;28;19916;-65
2022/09/12 11:55:45;;;;;;;;;;;25.60;86.60;;;;;;5071976;28;20007;-66
2022/09/12 11:58:11;;;;;;;;;;;25.70;86.50;;;;;;5069904;28;20006;-67
2022/09/12 12:00:41;;;;;;;;;;;25.80;83.80;;;;;;5070103;28;19924;-66
2022/09/12 12:03:10;;;;;;;;;;;25.80;82.20;;;;;;5051611;28;19912;-67
2022/09/12 12:05:41;;;;;;;;;;;25.90;82.60;;;;;;5071796;28;19966;-66
2022/09/12 12:08:07;;;;;;;;;;;25.70;81.60;;;;;;5062744;28;19926;-66
2022/09/12 12:10:55;;;;;;;;;;;25.60;83.60;;;;;;5070829;28;19995;-66
2022/09/12 12:13:43;;;;;;;;;;;25.50;82.10;;;;;;5042805;28;20317;-66
2022/09/12 12:16:15;;;;;;;;;;;25.40;82.10;;;;;;5067950;28;19913;-67
2022/09/12 12:18:41;;;;;;;;;;;25.20;83.00;;;;;;5061647;28;19939;-67
2022/09/12 12:21:33;;;;;;;;;;;25.00;82.30;;;;;;5061048;28;20244;-66
2022/09/12 12:24:07;;;;;;;;;;;24.90;83.50;;;;;;5035955;28;19912;-65
2022/09/12 12:26:42;;;;;;;;;;;24.80;86.40;;;;;;5069181;28;21906;-66
2022/09/12 12:29:12;;;;;;;;;;;24.80;87.10;;;;;;5065158;28;19916;-66
2022/09/12 12:31:56;;;;;;;;;;;24.60;89.20;;;;;;5045949;28;19920;-66
2022/09/12 12:34:28;;;;;;;;;;;24.70;89.20;;;;;;5069048;28;19920;-66
2022/09/12 12:36:53;;;;;;;;;;;24.50;88.20;;;;;;5065740;28;19919;-66
2022/09/12 12:39:31;;;;;;;;;;;24.40;88.80;;;;;;5063428;28;19992;-66
2022/09/12 12:42:00;;;;;;;;;;;24.50;87.50;;;;;;5064048;28;20410;-66
2022/09/12 12:44:44;;;;;;;;;;;24.70;87.90;;;;;;5065882;28;20282;-65
2022/09/12 12:47:30;;;;;;;;;;;24.80;85.10;;;;;;5072434;28;19927;-67
2022/09/12 12:50:05;;;;;;;;;;;24.90;84.30;;;;;;5068848;28;20321;-66
2022/09/12 12:52:32;;;;;;;;;;;25.00;85.30;;;;;;5073601;28;19913;-67
2022/09/12 12:54:59;;;;;;;;;;;25.10;84.00;;;;;;5070349;28;19917;-66
2022/09/12 12:57:40;;;;;;;;;;;25.20;82.80;;;;;;5071480;28;19918;-66
2022/09/12 13:00:24;;;;;;;;;;;25.30;82.60;;;;;;5072885;28;19913;-65
2022/09/12 13:02:54;;;;;;;;;;;25.40;80.40;;;;;;5070371;28;19927;-66
2022/09/12 13:05:23;;;;;;;;;;;25.30;80.80;;;;;;5074799;28;19920;-67
2022/09/12 13:07:53;;;;;;;;;;;25.40;80.60;;;;;;5069454;28;20473;-67
2022/09/12 13:10:28;;;;;;;;;;;25.40;81.50;;;;;;5070325;28;19959;-66
2022/09/12 13:12:55;;;;;;;;;;;25.40;80.40;;;;;;5065791;28;19916;-66
2022/09/12 13:15:47;;;;;;;;;;;25.50;80.60;;;;;;5062207;28;19912;-67
2022/09/12 13:18:19;;;;;;;;;;;25.60;79.70;;;;;;5042179;28;19912;-66
2022/09/12 13:21:08;;;;;;;;;;;25.30;81.20;;;;;;5073695;28;19912;-66
2022/09/12 13:23:34;;;;;;;;;;;25.00;82.20;;;;;;5058231;28;19919;-67
2022/09/12 13:26:01;;;;;;;;;;;25.00;82.80;;;;;;5073496;28;19947;-67
2022/09/12 13:28:29;;;;;;;;;;;24.80;84.10;;;;;;5071271;28;20528;-67
2022/09/12 13:31:16;;;;;;;;;;;25.10;83.00;;;;;;5056159;28;20287;-66
2022/09/12 13:33:55;;;;;;;;;;;25.20;82.30;;;;;;5054338;28;20019;-66
2022/09/12 13:36:39;;;;;;;;;;;25.30;81.70;;;;;;5047850;28;19913;-65
2022/09/12 13:39:07;;;;;;;;;;;25.40;81.20;;;;;;5068416;28;19916;-66
2022/09/12 13:41:42;;;;;;;;;;;25.40;80.80;;;;;;5070734;28;20397;-67
2022/09/12 13:44:09;;;;;;;;;;;25.20;80.70;;;;;;5071931;28;20054;-66
2022/09/12 13:46:34;;;;;;;;;;;25.20;81.20;;;;;;5072987;28;20344;-67
2022/09/12 13:49:04;;;;;;;;;;;25.20;81.50;;;;;;5072175;28;19913;-66
2022/09/12 13:51:31;;;;;;;;;;;25.20;81.60;;;;;;5072634;28;19937;-67
2022/09/12 13:53:58;;;;;;;;;;;25.40;80.40;;;;;;5063754;28;19920;-67
2022/09/12 13:56:24;;;;;;;;;;;25.50;79.20;;;;;;5055544;28;19916;-66
2022/09/12 13:58:51;;;;;;;;;;;25.80;79.20;;;;;;5070799;28;19912;-67
2022/09/12 14:01:17;;;;;;;;;;;25.90;77.60;;;;;;5047756;28;19924;-67
2022/09/12 14:06:50;;;;;;;;;;;26.00;76.90;;;;;;5069123;28;20342;-66
2022/09/12 14:09:21;;;;;;;;;;;26.00;75.10;;;;;;5067258;28;19936;-66
2022/09/12 14:11:50;;;;;;;;;;;26.20;74.80;;;;;;5067467;28;19913;-67
2022/09/12 14:14:35;;;;;;;;;;;26.50;74.30;;;;;;5073836;28;19917;-67
2022/09/12 14:17:14;;;;;;;;;;;26.50;73.70;;;;;;5068100;28;19950;-67
2022/09/12 14:19:39;;;;;;;;;;;26.40;74.60;;;;;;5048985;28;19920;-67
2022/09/12 14:22:07;;;;;;;;;;;26.50;73.30;;;;;;5053004;28;20005;-67
2022/09/12 14:24:33;;;;;;;;;;;26.40;74.00;;;;;;5068541;28;19912;-67
2022/09/12 14:26:58;;;;;;;;;;;26.50;74.10;;;;;;5070546;28;19928;-67
2022/09/12 14:29:25;;;;;;;;;;;26.60;73.60;;;;;;5068332;28;19919;-67
2022/09/12 14:32:01;;;;;;;;;;;26.60;73.80;;;;;;5067307;28;20366;-66
2022/09/12 14:34:27;;;;;;;;;;;26.40;74.40;;;;;;5066100;28;19924;-66